sensor_id;sensor_type;location;lat;lon;timestamp;temperature;humidity
10388;DHT22;5240;51.128;4.566;2023-04-03T00:00:52;4.10;99.90
10388;DHT22;5240;51.128;4.566;2023-04-03T00:03:19;4.10;99.90
10388;DHT22;5240;51.128;4.566;2023-04-03T00:05:48;4.10;99.90
10388;DHT22;5240;51.128;4.566;2023-04-03T00:08:15;4.10;99.90
10388;DHT22;5240;51.128;4.566;2023-04-03T00:10:42;4.00;99.90
10388;DHT22;5240;51.128;4.566;2023-04-03T00:13:10;3.90;99.90
10388;DHT22;5240;51.128;4.566;2023-04-03T00:15:38;4.00;99.90
10388;DHT22;5240;51.128;4.566;2023-04-03T00:18:06;4.00;99.90
10388;DHT22;5240;51.128;4.566;2023-04-03T00:20:33;4.00;99.90
10388;DHT22;5240;51.128;4.566;2023-04-03T00:23:02;3.90;99.90
10388;DHT22;5240;51.128;4.566;2023-04-03T00:25:29;3.90;99.90
10388;DHT22;5240;51.128;4.566;2023-04-03T00:27:56;3.90;99.90
10388;DHT22;5240;51.128;4.566;2023-04-03T00:30:23;3.90;99.90
10388;DHT22;5240;51.128;4.566;2023-04-03T00:32:51;3.80;99.90
10388;DHT22;5240;51.128;4.566;2023-04-03T00:35:19;3.70;99.90
10388;DHT22;5240;51.128;4.566;2023-04-03T00:37:46;3.70;99.90
10388;DHT22;5240;51.128;4.566;2023-04-03T00:40:15;3.70;99.90
10388;DHT22;5240;51.128;4.566;2023-04-03T00:42:45;3.70;99.90
10388;DHT22;5240;51.128;4.566;2023-04-03T00:45:25;3.70;99.90
10388;DHT22;5240;51.128;4.566;2023-04-03T00:47:53;3.70;99.90
10388;DHT22;5240;51.128;4.566;2023-04-03T00:50:21;3.70;99.90
10388;DHT22;5240;51.128;4.566;2023-04-03T00:52:51;3.70;99.90
10388;DHT22;5240;51.128;4.566;2023-04-03T00:55:20;3.60;99.90
10388;DHT22;5240;51.128;4.566;2023-04-03T00:57:47;3.60;99.90
10388;DHT22;5240;51.128;4.566;2023-04-03T01:00:17;3.60;99.90
10388;DHT22;5240;51.128;4.566;2023-04-03T01:02:45;3.60;99.90
10388;DHT22;5240;51.128;4.566;2023-04-03T01:05:13;3.60;99.90
10388;DHT22;5240;51.128;4.566;2023-04-03T01:07:41;3.60;99.90
10388;DHT22;5240;51.128;4.566;2023-04-03T01:10:11;3.60;99.90
10388;DHT22;5240;51.128;4.566;2023-04-03T01:12:42;3.60;99.90
10388;DHT22;5240;51.128;4.566;2023-04-03T01:15:11;3.60;99.90
10388;DHT22;5240;51.128;4.566;2023-04-03T01:17:41;3.60;99.90
10388;DHT22;5240;51.128;4.566;2023-04-03T01:23:25;3.60;99.90
10388;DHT22;5240;51.128;4.566;2023-04-03T01:25:55;3.60;99.90
10388;DHT22;5240;51.128;4.566;2023-04-03T01:28:26;3.50;99.90
10388;DHT22;5240;51.128;4.566;2023-04-03T01:31:02;3.50;99.90
10388;DHT22;5240;51.128;4.566;2023-04-03T01:33:34;3.50;99.90
10388;DHT22;5240;51.128;4.566;2023-04-03T01:36:01;3.40;99.90
10388;DHT22;5240;51.128;4.566;2023-04-03T01:38:28;3.40;99.90
10388;DHT22;5240;51.128;4.566;2023-04-03T01:40:55;3.40;99.90
10388;DHT22;5240;51.128;4.566;2023-04-03T01:43:22;3.40;99.90
10388;DHT22;5240;51.128;4.566;2023-04-03T01:45:50;3.30;99.90
10388;DHT22;5240;51.128;4.566;2023-04-03T01:48:18;3.20;99.90
10388;DHT22;5240;51.128;4.566;2023-04-03T01:50:46;3.20;99.90
10388;DHT22;5240;51.128;4.566;2023-04-03T01:53:14;3.10;99.90
10388;DHT22;5240;51.128;4.566;2023-04-03T01:55:41;3.20;99.90
10388;DHT22;5240;51.128;4.566;2023-04-03T01:58:08;3.10;99.90
10388;DHT22;5240;51.128;4.566;2023-04-03T02:00:35;3.10;99.90
10388;DHT22;5240;51.128;4.566;2023-04-03T02:03:02;3.10;99.90
10388;DHT22;5240;51.128;4.566;2023-04-03T02:05:29;3.10;99.90
10388;DHT22;5240;51.128;4.566;2023-04-03T02:07:58;3.10;99.90
10388;DHT22;5240;51.128;4.566;2023-04-03T02:10:25;3.10;99.90
10388;DHT22;5240;51.128;4.566;2023-04-03T02:12:52;3.00;99.90
10388;DHT22;5240;51.128;4.566;2023-04-03T02:15:19;3.00;99.90
10388;DHT22;5240;51.128;4.566;2023-04-03T02:17:46;3.00;99.90
10388;DHT22;5240;51.128;4.566;2023-04-03T02:20:13;3.00;99.90
10388;DHT22;5240;51.128;4.566;2023-04-03T02:22:41;3.00;99.90
10388;DHT22;5240;51.128;4.566;2023-04-03T02:25:09;3.00;99.90
10388;DHT22;5240;51.128;4.566;2023-04-03T02:27:37;2.90;99.90
10388;DHT22;5240;51.128;4.566;2023-04-03T02:30:05;3.00;99.90
10388;DHT22;5240;51.128;4.566;2023-04-03T02:32:35;3.00;99.90
10388;DHT22;5240;51.128;4.566;2023-04-03T02:35:02;3.00;99.90
10388;DHT22;5240;51.128;4.566;2023-04-03T02:37:29;3.00;99.90
10388;DHT22;5240;51.128;4.566;2023-04-03T02:39:56;2.90;99.90
10388;DHT22;5240;51.128;4.566;2023-04-03T02:42:25;2.90;99.90
10388;DHT22;5240;51.128;4.566;2023-04-03T02:44:52;2.90;99.90
10388;DHT22;5240;51.128;4.566;2023-04-03T02:47:19;2.90;99.90
10388;DHT22;5240;51.128;4.566;2023-04-03T02:49:46;3.00;99.90
10388;DHT22;5240;51.128;4.566;2023-04-03T02:52:13;2.90;99.90
10388;DHT22;5240;51.128;4.566;2023-04-03T02:54:40;2.90;99.90
10388;DHT22;5240;51.128;4.566;2023-04-03T02:57:07;2.90;99.90
10388;DHT22;5240;51.128;4.566;2023-04-03T02:59:36;2.90;99.90
10388;DHT22;5240;51.128;4.566;2023-04-03T03:02:06;2.90;99.90
10388;DHT22;5240;51.128;4.566;2023-04-03T03:04:33;2.90;99.90
10388;DHT22;5240;51.128;4.566;2023-04-03T03:07:00;2.90;99.90
10388;DHT22;5240;51.128;4.566;2023-04-03T03:09:27;2.90;99.90
10388;DHT22;5240;51.128;4.566;2023-04-03T03:11:55;2.90;99.90
10388;DHT22;5240;51.128;4.566;2023-04-03T03:14:22;2.80;99.90
10388;DHT22;5240;51.128;4.566;2023-04-03T03:16:50;2.80;99.90
10388;DHT22;5240;51.128;4.566;2023-04-03T03:19:17;2.80;99.90
10388;DHT22;5240;51.128;4.566;2023-04-03T03:21:44;2.80;99.90
10388;DHT22;5240;51.128;4.566;2023-04-03T03:24:11;2.80;99.90
10388;DHT22;5240;51.128;4.566;2023-04-03T03:26:38;2.70;99.90
10388;DHT22;5240;51.128;4.566;2023-04-03T03:29:05;2.70;99.90
10388;DHT22;5240;51.128;4.566;2023-04-03T03:31:32;2.70;99.90
10388;DHT22;5240;51.128;4.566;2023-04-03T03:34:01;2.70;99.90
10388;DHT22;5240;51.128;4.566;2023-04-03T03:36:28;2.70;99.90
10388;DHT22;5240;51.128;4.566;2023-04-03T03:38:55;2.60;99.90
10388;DHT22;5240;51.128;4.566;2023-04-03T03:41:22;2.60;99.90
10388;DHT22;5240;51.128;4.566;2023-04-03T03:43:49;2.50;99.90
10388;DHT22;5240;51.128;4.566;2023-04-03T03:46:16;2.50;99.90
10388;DHT22;5240;51.128;4.566;2023-04-03T03:48:43;2.50;99.90
10388;DHT22;5240;51.128;4.566;2023-04-03T03:51:11;2.50;99.90
10388;DHT22;5240;51.128;4.566;2023-04-03T03:53:38;2.50;99.90
10388;DHT22;5240;51.128;4.566;2023-04-03T03:56:06;2.50;99.90
10388;DHT22;5240;51.128;4.566;2023-04-03T03:58:33;2.50;99.90
10388;DHT22;5240;51.128;4.566;2023-04-03T04:01:01;2.40;99.90
10388;DHT22;5240;51.128;4.566;2023-04-03T04:03:28;2.40;99.90
10388;DHT22;5240;51.128;4.566;2023-04-03T04:05:55;2.40;99.90
10388;DHT22;5240;51.128;4.566;2023-04-03T04:08:24;2.40;99.90
10388;DHT22;5240;51.128;4.566;2023-04-03T04:10:51;2.40;99.90
10388;DHT22;5240;51.128;4.566;2023-04-03T04:13:18;2.30;99.90
10388;DHT22;5240;51.128;4.566;2023-04-03T04:15:45;2.30;99.90
10388;DHT22;5240;51.128;4.566;2023-04-03T04:18:12;2.30;99.90
10388;DHT22;5240;51.128;4.566;2023-04-03T04:20:39;2.20;99.90
10388;DHT22;5240;51.128;4.566;2023-04-03T04:23:06;2.30;99.90
10388;DHT22;5240;51.128;4.566;2023-04-03T04:25:35;2.20;99.90
10388;DHT22;5240;51.128;4.566;2023-04-03T04:28:02;2.20;99.90
10388;DHT22;5240;51.128;4.566;2023-04-03T04:30:29;2.20;99.90
10388;DHT22;5240;51.128;4.566;2023-04-03T04:32:56;2.20;99.90
10388;DHT22;5240;51.128;4.566;2023-04-03T04:35:23;2.10;99.90
10388;DHT22;5240;51.128;4.566;2023-04-03T04:37:50;2.20;99.90
10388;DHT22;5240;51.128;4.566;2023-04-03T04:40:17;2.10;99.90
10388;DHT22;5240;51.128;4.566;2023-04-03T04:42:45;2.10;99.90
10388;DHT22;5240;51.128;4.566;2023-04-03T04:45:12;2.20;99.90
10388;DHT22;5240;51.128;4.566;2023-04-03T04:47:40;2.10;99.90
10388;DHT22;5240;51.128;4.566;2023-04-03T04:50:08;2.00;99.90
10388;DHT22;5240;51.128;4.566;2023-04-03T04:52:35;2.00;99.90
10388;DHT22;5240;51.128;4.566;2023-04-03T04:55:03;1.90;99.90
10388;DHT22;5240;51.128;4.566;2023-04-03T04:57:30;1.90;99.90
10388;DHT22;5240;51.128;4.566;2023-04-03T04:59:59;1.90;99.90
10388;DHT22;5240;51.128;4.566;2023-04-03T05:02:26;1.90;99.90
10388;DHT22;5240;51.128;4.566;2023-04-03T05:04:53;1.90;99.90
10388;DHT22;5240;51.128;4.566;2023-04-03T05:07:20;2.00;99.90
10388;DHT22;5240;51.128;4.566;2023-04-03T05:09:47;1.90;99.90
10388;DHT22;5240;51.128;4.566;2023-04-03T05:12:14;1.90;99.90
10388;DHT22;5240;51.128;4.566;2023-04-03T05:14:41;1.90;99.90
10388;DHT22;5240;51.128;4.566;2023-04-03T05:17:09;1.90;99.90
10388;DHT22;5240;51.128;4.566;2023-04-03T05:19:36;1.90;99.90
10388;DHT22;5240;51.128;4.566;2023-04-03T05:22:03;1.90;99.90
10388;DHT22;5240;51.128;4.566;2023-04-03T05:24:30;1.90;99.90
10388;DHT22;5240;51.128;4.566;2023-04-03T05:26:57;1.90;99.90
10388;DHT22;5240;51.128;4.566;2023-04-03T05:29:24;1.90;99.90
10388;DHT22;5240;51.128;4.566;2023-04-03T05:31:51;2.00;99.90
10388;DHT22;5240;51.128;4.566;2023-04-03T05:34:20;2.00;99.90
10388;DHT22;5240;51.128;4.566;2023-04-03T05:36:47;2.00;99.90
10388;DHT22;5240;51.128;4.566;2023-04-03T05:39:14;1.90;99.90
10388;DHT22;5240;51.128;4.566;2023-04-03T05:41:41;1.90;99.90
10388;DHT22;5240;51.128;4.566;2023-04-03T05:44:08;1.90;99.90
10388;DHT22;5240;51.128;4.566;2023-04-03T05:46:35;1.90;99.90
10388;DHT22;5240;51.128;4.566;2023-04-03T05:49:02;2.00;99.90
10388;DHT22;5240;51.128;4.566;2023-04-03T05:51:32;1.90;99.90
10388;DHT22;5240;51.128;4.566;2023-04-03T05:54:04;2.00;99.90
10388;DHT22;5240;51.128;4.566;2023-04-03T05:56:33;2.00;99.90
10388;DHT22;5240;51.128;4.566;2023-04-03T05:59:00;2.10;99.90
10388;DHT22;5240;51.128;4.566;2023-04-03T06:01:27;2.10;99.90
10388;DHT22;5240;51.128;4.566;2023-04-03T06:03:54;2.20;99.90
10388;DHT22;5240;51.128;4.566;2023-04-03T06:06:21;2.30;99.90
10388;DHT22;5240;51.128;4.566;2023-04-03T06:08:50;2.50;99.90
10388;DHT22;5240;51.128;4.566;2023-04-03T06:11:17;2.50;99.90
10388;DHT22;5240;51.128;4.566;2023-04-03T06:13:44;2.50;99.90
10388;DHT22;5240;51.128;4.566;2023-04-03T06:16:12;2.60;99.90
10388;DHT22;5240;51.128;4.566;2023-04-03T06:18:41;2.60;99.90
10388;DHT22;5240;51.128;4.566;2023-04-03T06:21:08;2.60;99.90
10388;DHT22;5240;51.128;4.566;2023-04-03T06:23:35;2.60;99.90
10388;DHT22;5240;51.128;4.566;2023-04-03T06:26:03;2.70;99.90
10388;DHT22;5240;51.128;4.566;2023-04-03T06:28:31;2.70;99.90
10388;DHT22;5240;51.128;4.566;2023-04-03T06:30:58;2.80;99.90
10388;DHT22;5240;51.128;4.566;2023-04-03T06:33:25;2.80;99.90
10388;DHT22;5240;51.128;4.566;2023-04-03T06:35:56;2.90;99.90
10388;DHT22;5240;51.128;4.566;2023-04-03T06:38:23;2.90;99.90
10388;DHT22;5240;51.128;4.566;2023-04-03T06:40:51;3.00;99.90
10388;DHT22;5240;51.128;4.566;2023-04-03T06:43:20;3.00;99.90
10388;DHT22;5240;51.128;4.566;2023-04-03T06:45:47;3.10;99.90
10388;DHT22;5240;51.128;4.566;2023-04-03T06:48:14;3.10;99.90
10388;DHT22;5240;51.128;4.566;2023-04-03T06:50:41;3.20;99.90
10388;DHT22;5240;51.128;4.566;2023-04-03T06:53:09;3.30;99.90
10388;DHT22;5240;51.128;4.566;2023-04-03T06:55:36;3.30;99.90
10388;DHT22;5240;51.128;4.566;2023-04-03T06:58:03;3.50;99.90
10388;DHT22;5240;51.128;4.566;2023-04-03T07:00:32;3.50;99.90
10388;DHT22;5240;51.128;4.566;2023-04-03T07:02:59;3.60;99.90
10388;DHT22;5240;51.128;4.566;2023-04-03T07:05:26;3.70;99.90
10388;DHT22;5240;51.128;4.566;2023-04-03T07:07:53;3.70;99.90
10388;DHT22;5240;51.128;4.566;2023-04-03T07:10:21;3.80;99.90
10388;DHT22;5240;51.128;4.566;2023-04-03T07:12:48;3.80;99.90
10388;DHT22;5240;51.128;4.566;2023-04-03T07:15:15;3.90;99.90
10388;DHT22;5240;51.128;4.566;2023-04-03T07:17:43;3.90;99.90
10388;DHT22;5240;51.128;4.566;2023-04-03T07:20:11;4.00;99.90
10388;DHT22;5240;51.128;4.566;2023-04-03T07:22:38;4.00;99.90
10388;DHT22;5240;51.128;4.566;2023-04-03T07:25:07;4.00;99.90
10388;DHT22;5240;51.128;4.566;2023-04-03T07:27:34;4.10;99.90
10388;DHT22;5240;51.128;4.566;2023-04-03T07:30:01;4.10;99.90
10388;DHT22;5240;51.128;4.566;2023-04-03T07:32:28;4.20;99.90
10388;DHT22;5240;51.128;4.566;2023-04-03T07:34:57;4.50;99.90
10388;DHT22;5240;51.128;4.566;2023-04-03T07:37:24;4.60;99.90
10388;DHT22;5240;51.128;4.566;2023-04-03T07:39:52;4.60;99.90
10388;DHT22;5240;51.128;4.566;2023-04-03T07:42:20;4.60;99.90
10388;DHT22;5240;51.128;4.566;2023-04-03T07:44:47;4.70;99.90
10388;DHT22;5240;51.128;4.566;2023-04-03T07:47:14;4.80;99.90
10388;DHT22;5240;51.128;4.566;2023-04-03T07:49:42;4.80;99.90
10388;DHT22;5240;51.128;4.566;2023-04-03T07:52:11;5.00;99.90
10388;DHT22;5240;51.128;4.566;2023-04-03T07:54:40;5.10;99.90
10388;DHT22;5240;51.128;4.566;2023-04-03T07:57:07;5.10;99.90
10388;DHT22;5240;51.128;4.566;2023-04-03T07:59:34;5.20;99.90
10388;DHT22;5240;51.128;4.566;2023-04-03T08:02:01;5.20;99.90
10388;DHT22;5240;51.128;4.566;2023-04-03T08:04:30;5.20;99.90
10388;DHT22;5240;51.128;4.566;2023-04-03T08:06:57;5.30;99.90
10388;DHT22;5240;51.128;4.566;2023-04-03T08:09:25;5.40;99.90
10388;DHT22;5240;51.128;4.566;2023-04-03T08:11:52;5.50;99.90
10388;DHT22;5240;51.128;4.566;2023-04-03T08:14:20;5.60;99.90
10388;DHT22;5240;51.128;4.566;2023-04-03T08:16:48;5.80;99.90
10388;DHT22;5240;51.128;4.566;2023-04-03T08:19:15;5.90;99.90
10388;DHT22;5240;51.128;4.566;2023-04-03T08:21:43;5.90;99.90
10388;DHT22;5240;51.128;4.566;2023-04-03T08:24:11;6.30;99.90
10388;DHT22;5240;51.128;4.566;2023-04-03T08:26:39;6.70;99.90
10388;DHT22;5240;51.128;4.566;2023-04-03T08:29:06;6.70;99.90
10388;DHT22;5240;51.128;4.566;2023-04-03T08:31:33;7.20;99.90
10388;DHT22;5240;51.128;4.566;2023-04-03T08:34:00;7.80;99.90
10388;DHT22;5240;51.128;4.566;2023-04-03T08:36:29;8.30;99.90
10388;DHT22;5240;51.128;4.566;2023-04-03T08:38:57;8.50;99.90
10388;DHT22;5240;51.128;4.566;2023-04-03T08:41:32;8.80;99.90
10388;DHT22;5240;51.128;4.566;2023-04-03T08:44:14;9.40;99.90
10388;DHT22;5240;51.128;4.566;2023-04-03T08:47:02;9.80;99.90
10388;DHT22;5240;51.128;4.566;2023-04-03T08:49:32;9.80;99.90
10388;DHT22;5240;51.128;4.566;2023-04-03T08:52:04;9.60;99.90
10388;DHT22;5240;51.128;4.566;2023-04-03T08:54:34;9.90;99.90
10388;DHT22;5240;51.128;4.566;2023-04-03T08:57:04;9.70;99.90
10388;DHT22;5240;51.128;4.566;2023-04-03T08:59:36;9.80;99.90
10388;DHT22;5240;51.128;4.566;2023-04-03T09:02:17;9.90;99.90
10388;DHT22;5240;51.128;4.566;2023-04-03T09:04:47;10.10;99.90
10388;DHT22;5240;51.128;4.566;2023-04-03T09:07:22;10.40;99.90
10388;DHT22;5240;51.128;4.566;2023-04-03T09:09:50;11.10;99.90
10388;DHT22;5240;51.128;4.566;2023-04-03T09:12:22;11.10;99.90
10388;DHT22;5240;51.128;4.566;2023-04-03T09:15:00;10.50;99.90
10388;DHT22;5240;51.128;4.566;2023-04-03T09:17:38;10.60;99.90
10388;DHT22;5240;51.128;4.566;2023-04-03T09:20:17;10.80;99.90
10388;DHT22;5240;51.128;4.566;2023-04-03T09:22:46;10.40;99.90
10388;DHT22;5240;51.128;4.566;2023-04-03T09:25:16;10.90;99.90
10388;DHT22;5240;51.128;4.566;2023-04-03T09:27:45;11.30;99.90
10388;DHT22;5240;51.128;4.566;2023-04-03T09:30:15;11.00;99.90
10388;DHT22;5240;51.128;4.566;2023-04-03T09:32:45;11.10;99.90
10388;DHT22;5240;51.128;4.566;2023-04-03T09:35:25;11.50;99.90
10388;DHT22;5240;51.128;4.566;2023-04-03T09:37:54;11.70;99.90
10388;DHT22;5240;51.128;4.566;2023-04-03T09:40:43;12.10;99.90
10388;DHT22;5240;51.128;4.566;2023-04-03T09:43:32;12.80;99.90
10388;DHT22;5240;51.128;4.566;2023-04-03T09:46:23;13.20;99.90
10388;DHT22;5240;51.128;4.566;2023-04-03T09:48:52;12.60;99.90
10388;DHT22;5240;51.128;4.566;2023-04-03T09:51:25;12.60;99.90
10388;DHT22;5240;51.128;4.566;2023-04-03T09:53:53;13.40;99.90
10388;DHT22;5240;51.128;4.566;2023-04-03T09:56:23;13.90;99.90
10388;DHT22;5240;51.128;4.566;2023-04-03T09:59:05;13.90;99.90
10388;DHT22;5240;51.128;4.566;2023-04-03T10:01:37;13.90;99.90
10388;DHT22;5240;51.128;4.566;2023-04-03T10:04:07;14.10;99.90
10388;DHT22;5240;51.128;4.566;2023-04-03T10:06:37;14.30;99.90
10388;DHT22;5240;51.128;4.566;2023-04-03T10:09:17;14.40;99.90
10388;DHT22;5240;51.128;4.566;2023-04-03T10:12:01;13.90;99.90
10388;DHT22;5240;51.128;4.566;2023-04-03T10:14:30;13.30;99.90
10388;DHT22;5240;51.128;4.566;2023-04-03T10:17:09;13.70;99.90
10388;DHT22;5240;51.128;4.566;2023-04-03T10:19:42;14.30;99.90
10388;DHT22;5240;51.128;4.566;2023-04-03T10:22:16;14.20;99.90
10388;DHT22;5240;51.128;4.566;2023-04-03T10:24:57;13.60;99.90
10388;DHT22;5240;51.128;4.566;2023-04-03T10:27:35;13.30;99.90
10388;DHT22;5240;51.128;4.566;2023-04-03T10:30:13;14.10;99.90
10388;DHT22;5240;51.128;4.566;2023-04-03T10:32:58;15.00;99.90
10388;DHT22;5240;51.128;4.566;2023-04-03T10:35:42;15.20;99.90
10388;DHT22;5240;51.128;4.566;2023-04-03T10:38:15;14.90;99.90
10388;DHT22;5240;51.128;4.566;2023-04-03T10:40:52;14.50;99.90
10388;DHT22;5240;51.128;4.566;2023-04-03T10:43:29;15.10;99.90
10388;DHT22;5240;51.128;4.566;2023-04-03T10:46:04;15.30;99.90
10388;DHT22;5240;51.128;4.566;2023-04-03T10:49:01;15.00;99.90
10388;DHT22;5240;51.128;4.566;2023-04-03T10:51:38;15.50;99.90
10388;DHT22;5240;51.128;4.566;2023-04-03T10:54:11;16.40;99.90
10388;DHT22;5240;51.128;4.566;2023-04-03T10:56:41;16.40;99.90
10388;DHT22;5240;51.128;4.566;2023-04-03T10:59:21;16.20;99.90
10388;DHT22;5240;51.128;4.566;2023-04-03T11:01:53;16.40;99.90
10388;DHT22;5240;51.128;4.566;2023-04-03T11:04:24;16.40;99.70
10388;DHT22;5240;51.128;4.566;2023-04-03T11:06:58;16.70;99.90
10388;DHT22;5240;51.128;4.566;2023-04-03T11:09:28;17.20;99.90
10388;DHT22;5240;51.128;4.566;2023-04-03T11:12:02;17.10;98.50
10388;DHT22;5240;51.128;4.566;2023-04-03T11:14:32;17.20;98.70
10388;DHT22;5240;51.128;4.566;2023-04-03T11:17:06;16.60;96.60
10388;DHT22;5240;51.128;4.566;2023-04-03T11:19:46;16.30;98.00
10388;DHT22;5240;51.128;4.566;2023-04-03T11:22:22;16.50;97.80
10388;DHT22;5240;51.128;4.566;2023-04-03T11:24:57;17.00;96.00
10388;DHT22;5240;51.128;4.566;2023-04-03T11:27:26;16.20;94.70
10388;DHT22;5240;51.128;4.566;2023-04-03T11:29:57;16.10;95.10
10388;DHT22;5240;51.128;4.566;2023-04-03T11:32:56;16.50;95.20
10388;DHT22;5240;51.128;4.566;2023-04-03T11:35:27;16.70;94.60
10388;DHT22;5240;51.128;4.566;2023-04-03T11:37:56;16.30;94.20
10388;DHT22;5240;51.128;4.566;2023-04-03T11:40:26;16.60;93.90
10388;DHT22;5240;51.128;4.566;2023-04-03T11:43:04;17.10;93.90
10388;DHT22;5240;51.128;4.566;2023-04-03T11:45:35;17.30;93.30
10388;DHT22;5240;51.128;4.566;2023-04-03T11:48:04;17.40;92.70
10388;DHT22;5240;51.128;4.566;2023-04-03T11:50:41;17.10;92.40
10388;DHT22;5240;51.128;4.566;2023-04-03T11:53:32;17.00;91.60
10388;DHT22;5240;51.128;4.566;2023-04-03T11:59:21;17.00;90.80
10388;DHT22;5240;51.128;4.566;2023-04-03T12:01:49;17.20;91.70
10388;DHT22;5240;51.128;4.566;2023-04-03T12:04:18;17.30;90.80
10388;DHT22;5240;51.128;4.566;2023-04-03T12:07:14;18.00;90.70
10388;DHT22;5240;51.128;4.566;2023-04-03T12:10:18;18.40;90.10
10388;DHT22;5240;51.128;4.566;2023-04-03T12:12:58;18.40;89.70
10388;DHT22;5240;51.128;4.566;2023-04-03T12:15:52;18.70;89.30
10388;DHT22;5240;51.128;4.566;2023-04-03T12:18:55;18.10;89.80
10388;DHT22;5240;51.128;4.566;2023-04-03T12:24:34;18.80;88.00
10388;DHT22;5240;51.128;4.566;2023-04-03T12:27:05;19.00;88.40
10388;DHT22;5240;51.128;4.566;2023-04-03T12:29:40;18.70;84.90
10388;DHT22;5240;51.128;4.566;2023-04-03T12:32:22;18.10;85.70
10388;DHT22;5240;51.128;4.566;2023-04-03T12:35:01;18.50;84.20
10388;DHT22;5240;51.128;4.566;2023-04-03T12:37:48;18.00;85.60
10388;DHT22;5240;51.128;4.566;2023-04-03T12:40:26;17.50;86.70
10388;DHT22;5240;51.128;4.566;2023-04-03T12:43:28;17.90;86.40
10388;DHT22;5240;51.128;4.566;2023-04-03T12:46:02;18.10;84.30
10388;DHT22;5240;51.128;4.566;2023-04-03T12:48:30;18.30;82.30
10388;DHT22;5240;51.128;4.566;2023-04-03T12:50:58;18.10;82.80
10388;DHT22;5240;51.128;4.566;2023-04-03T12:53:28;17.40;86.60
10388;DHT22;5240;51.128;4.566;2023-04-03T12:56:20;17.60;85.50
10388;DHT22;5240;51.128;4.566;2023-04-03T12:58:48;17.60;84.70
10388;DHT22;5240;51.128;4.566;2023-04-03T13:01:18;17.50;84.20
10388;DHT22;5240;51.128;4.566;2023-04-03T13:03:50;17.40;84.60
10388;DHT22;5240;51.128;4.566;2023-04-03T13:06:21;17.90;84.40
10388;DHT22;5240;51.128;4.566;2023-04-03T13:08:50;17.80;84.20
10388;DHT22;5240;51.128;4.566;2023-04-03T13:11:20;17.30;85.90
10388;DHT22;5240;51.128;4.566;2023-04-03T13:13:55;17.60;84.00
10388;DHT22;5240;51.128;4.566;2023-04-03T13:16:26;17.10;84.10
10388;DHT22;5240;51.128;4.566;2023-04-03T13:18:54;16.70;86.60
10388;DHT22;5240;51.128;4.566;2023-04-03T13:21:23;17.30;86.20
10388;DHT22;5240;51.128;4.566;2023-04-03T13:23:54;17.00;85.60
10388;DHT22;5240;51.128;4.566;2023-04-03T13:26:27;17.20;86.90
10388;DHT22;5240;51.128;4.566;2023-04-03T13:28:57;17.50;86.60
10388;DHT22;5240;51.128;4.566;2023-04-03T13:31:28;17.10;85.40
10388;DHT22;5240;51.128;4.566;2023-04-03T13:33:58;17.20;85.70
10388;DHT22;5240;51.128;4.566;2023-04-03T13:36:34;17.20;86.20
10388;DHT22;5240;51.128;4.566;2023-04-03T13:39:05;17.10;84.50
10388;DHT22;5240;51.128;4.566;2023-04-03T13:41:36;16.60;84.40
10388;DHT22;5240;51.128;4.566;2023-04-03T13:44:23;16.20;85.70
10388;DHT22;5240;51.128;4.566;2023-04-03T13:46:53;15.30;86.40
10388;DHT22;5240;51.128;4.566;2023-04-03T13:49:22;14.50;87.30
10388;DHT22;5240;51.128;4.566;2023-04-03T13:51:54;13.80;88.30
10388;DHT22;5240;51.128;4.566;2023-04-03T13:54:23;13.00;88.90
10388;DHT22;5240;51.128;4.566;2023-04-03T13:56:55;12.40;90.60
10388;DHT22;5240;51.128;4.566;2023-04-03T13:59:24;12.10;91.20
10388;DHT22;5240;51.128;4.566;2023-04-03T14:01:56;12.20;91.80
10388;DHT22;5240;51.128;4.566;2023-04-03T14:04:45;11.80;91.10
10388;DHT22;5240;51.128;4.566;2023-04-03T14:07:14;11.80;91.10
10388;DHT22;5240;51.128;4.566;2023-04-03T14:09:42;11.60;91.60
10388;DHT22;5240;51.128;4.566;2023-04-03T14:12:15;11.50;91.40
10388;DHT22;5240;51.128;4.566;2023-04-03T14:14:43;11.60;92.00
10388;DHT22;5240;51.128;4.566;2023-04-03T14:17:16;11.60;92.10
10388;DHT22;5240;51.128;4.566;2023-04-03T14:19:45;11.50;91.40
10388;DHT22;5240;51.128;4.566;2023-04-03T14:22:16;11.50;92.10
10388;DHT22;5240;51.128;4.566;2023-04-03T14:24:44;11.30;91.60
10388;DHT22;5240;51.128;4.566;2023-04-03T14:27:17;11.00;92.30
10388;DHT22;5240;51.128;4.566;2023-04-03T14:29:45;11.00;92.20
10388;DHT22;5240;51.128;4.566;2023-04-03T14:32:13;11.00;92.20
10388;DHT22;5240;51.128;4.566;2023-04-03T14:34:42;10.80;92.30
10388;DHT22;5240;51.128;4.566;2023-04-03T14:37:11;10.90;92.10
10388;DHT22;5240;51.128;4.566;2023-04-03T14:39:39;10.90;92.10
10388;DHT22;5240;51.128;4.566;2023-04-03T14:42:12;11.00;91.20
10388;DHT22;5240;51.128;4.566;2023-04-03T14:44:42;11.00;91.50
10388;DHT22;5240;51.128;4.566;2023-04-03T14:47:11;11.00;91.30
10388;DHT22;5240;51.128;4.566;2023-04-03T14:49:39;10.90;91.30
10388;DHT22;5240;51.128;4.566;2023-04-03T14:52:09;11.00;92.20
10388;DHT22;5240;51.128;4.566;2023-04-03T14:54:43;11.00;92.00
10388;DHT22;5240;51.128;4.566;2023-04-03T14:57:12;11.00;92.00
10388;DHT22;5240;51.128;4.566;2023-04-03T14:59:41;10.90;91.30
10388;DHT22;5240;51.128;4.566;2023-04-03T15:02:25;11.00;90.90
10388;DHT22;5240;51.128;4.566;2023-04-03T15:04:52;11.00;91.80
10388;DHT22;5240;51.128;4.566;2023-04-03T15:07:20;11.10;91.80
10388;DHT22;5240;51.128;4.566;2023-04-03T15:09:47;11.10;90.40
10388;DHT22;5240;51.128;4.566;2023-04-03T15:12:15;11.10;90.50
10388;DHT22;5240;51.128;4.566;2023-04-03T15:14:43;10.90;90.00
10388;DHT22;5240;51.128;4.566;2023-04-03T15:17:14;10.80;90.90
10388;DHT22;5240;51.128;4.566;2023-04-03T15:19:42;10.70;90.60
10388;DHT22;5240;51.128;4.566;2023-04-03T15:22:14;10.80;91.30
10388;DHT22;5240;51.128;4.566;2023-04-03T15:24:41;10.80;91.70
10388;DHT22;5240;51.128;4.566;2023-04-03T15:27:09;10.90;92.10
10388;DHT22;5240;51.128;4.566;2023-04-03T15:29:36;11.00;92.20
10388;DHT22;5240;51.128;4.566;2023-04-03T15:32:05;11.00;92.00
10388;DHT22;5240;51.128;4.566;2023-04-03T15:34:32;11.00;92.70
10388;DHT22;5240;51.128;4.566;2023-04-03T15:36:59;11.00;92.60
10388;DHT22;5240;51.128;4.566;2023-04-03T15:39:26;10.80;92.00
10388;DHT22;5240;51.128;4.566;2023-04-03T15:41:54;10.80;92.70
10388;DHT22;5240;51.128;4.566;2023-04-03T15:44:21;10.90;92.60
10388;DHT22;5240;51.128;4.566;2023-04-03T15:46:48;10.90;93.10
10388;DHT22;5240;51.128;4.566;2023-04-03T15:49:19;10.90;92.30
10388;DHT22;5240;51.128;4.566;2023-04-03T15:51:47;10.90;93.50
10388;DHT22;5240;51.128;4.566;2023-04-03T15:54:16;10.80;93.30
10388;DHT22;5240;51.128;4.566;2023-04-03T15:56:43;10.80;94.10
10388;DHT22;5240;51.128;4.566;2023-04-03T15:59:10;10.90;94.90
10388;DHT22;5240;51.128;4.566;2023-04-03T16:01:38;10.90;94.20
10388;DHT22;5240;51.128;4.566;2023-04-03T16:04:07;10.80;93.30
10388;DHT22;5240;51.128;4.566;2023-04-03T16:06:37;10.60;93.80
10388;DHT22;5240;51.128;4.566;2023-04-03T16:09:04;10.50;94.40
10388;DHT22;5240;51.128;4.566;2023-04-03T16:11:31;10.50;94.60
10388;DHT22;5240;51.128;4.566;2023-04-03T16:14:00;10.50;94.40
10388;DHT22;5240;51.128;4.566;2023-04-03T16:16:27;10.40;94.80
10388;DHT22;5240;51.128;4.566;2023-04-03T16:18:55;10.40;94.10
10388;DHT22;5240;51.128;4.566;2023-04-03T16:21:22;10.50;94.80
10388;DHT22;5240;51.128;4.566;2023-04-03T16:23:52;10.50;93.80